createdAt,value
2018-07-10T00:01:21.185Z,17.70
2018-07-10T00:06:19.359Z,17.70
2018-07-10T00:11:04.924Z,17.70
2018-07-10T00:13:33.196Z,17.80
2018-07-10T00:16:02.370Z,17.70
2018-07-10T00:18:30.592Z,17.70
2018-07-10T00:20:58.784Z,17.70
2018-07-10T00:23:27.603Z,17.70
2018-07-10T00:25:55.806Z,17.70
2018-07-10T00:28:24.005Z,17.70
2018-07-10T00:30:52.289Z,17.70
2018-07-10T00:33:20.548Z,17.70
2018-07-10T00:35:56.848Z,17.60
2018-07-10T00:38:36.418Z,17.60
2018-07-10T00:41:04.739Z,17.60
2018-07-10T00:43:33.034Z,17.60
2018-07-10T00:46:01.269Z,17.60
2018-07-10T00:50:57.868Z,17.50
2018-07-10T00:53:26.187Z,17.50
2018-07-10T00:55:54.506Z,17.50
2018-07-10T00:58:22.754Z,17.50
2018-07-10T01:00:52.185Z,17.50
2018-07-10T01:03:21.150Z,17.40
2018-07-10T01:05:56.010Z,17.40
2018-07-10T01:08:24.284Z,17.40
2018-07-10T01:10:57.856Z,17.30
2018-07-10T01:13:26.162Z,17.30
2018-07-10T01:15:54.447Z,17.30
2018-07-10T01:18:26.908Z,17.30
2018-07-10T01:20:55.185Z,17.30
2018-07-10T01:23:27.077Z,17.20
2018-07-10T01:25:55.729Z,17.20
2018-07-10T01:28:24.696Z,17.20
2018-07-10T01:30:52.993Z,17.20
2018-07-10T01:35:50.156Z,17.20
2018-07-10T01:38:19.996Z,17.20
2018-07-10T01:40:48.242Z,17.20
2018-07-10T01:43:17.129Z,17.20
2018-07-10T01:45:45.367Z,17.20
2018-07-10T01:48:13.611Z,17.10
2018-07-10T01:50:41.823Z,17.10
2018-07-10T01:53:10.076Z,17.10
2018-07-10T01:55:38.341Z,17.00
2018-07-10T01:58:06.749Z,17.00
2018-07-10T02:00:39.347Z,17.00
2018-07-10T02:03:07.793Z,17.00
2018-07-10T02:05:36.984Z,16.90
2018-07-10T02:08:09.713Z,16.90
2018-07-10T02:10:38.072Z,16.90
2018-07-10T02:13:06.313Z,16.90
2018-07-10T02:15:34.588Z,17.00
2018-07-10T02:18:03.361Z,16.90
2018-07-10T02:21:07.794Z,16.90
2018-07-10T02:23:38.903Z,16.90
2018-07-10T02:26:14.321Z,16.90
2018-07-10T02:28:42.914Z,16.90
2018-07-10T02:31:11.661Z,16.80
2018-07-10T02:33:39.933Z,16.80
2018-07-10T02:36:08.143Z,16.80
2018-07-10T02:38:46.791Z,16.70
2018-07-10T02:41:18.516Z,16.60
2018-07-10T02:46:16.547Z,16.60
2018-07-10T02:48:44.838Z,16.60
2018-07-10T02:51:13.106Z,16.50
2018-07-10T02:53:44.464Z,16.50
2018-07-10T02:56:18.265Z,16.50
2018-07-10T02:58:46.517Z,16.50
2018-07-10T03:01:14.765Z,16.50
2018-07-10T03:03:44.476Z,16.50
2018-07-10T03:06:12.819Z,16.50
2018-07-10T03:08:41.484Z,16.40
2018-07-10T03:11:09.995Z,16.40
2018-07-10T03:13:39.523Z,16.50
2018-07-10T03:16:07.752Z,16.50
2018-07-10T03:18:36.030Z,16.50
2018-07-10T03:21:04.264Z,16.50
2018-07-10T03:23:32.601Z,16.40
2018-07-10T03:26:00.800Z,16.40
2018-07-10T03:28:29.057Z,16.40
2018-07-10T03:30:57.384Z,16.30
2018-07-10T03:33:25.600Z,16.40
2018-07-10T03:35:53.836Z,16.40
2018-07-10T03:38:22.161Z,16.40
2018-07-10T03:40:50.872Z,16.40
2018-07-10T03:43:19.084Z,16.40
2018-07-10T03:45:47.427Z,16.40
2018-07-10T03:48:15.652Z,16.40
2018-07-10T03:50:43.929Z,16.30
2018-07-10T03:53:12.204Z,16.30
2018-07-10T03:55:41.368Z,16.40
2018-07-10T03:58:09.625Z,16.40
2018-07-10T04:00:37.855Z,16.40
2018-07-10T04:03:06.189Z,16.40
2018-07-10T04:05:34.365Z,16.40
2018-07-10T04:08:04.578Z,16.50
2018-07-10T04:10:34.337Z,16.60
2018-07-10T04:13:20.648Z,16.60
2018-07-10T04:15:52.677Z,16.60
2018-07-10T04:18:23.249Z,16.70
2018-07-10T04:20:57.200Z,16.70
2018-07-10T04:23:34.432Z,16.80
2018-07-10T04:26:05.996Z,16.80
2018-07-10T04:28:35.376Z,16.70
2018-07-10T04:31:11.757Z,16.70
2018-07-10T04:33:40.324Z,16.70
2018-07-10T04:36:10.037Z,16.80
2018-07-10T04:38:38.310Z,16.80
2018-07-10T04:41:14.680Z,16.90
2018-07-10T04:43:47.850Z,16.80
2018-07-10T04:48:45.532Z,16.80
2018-07-10T04:53:55.569Z,16.90
2018-07-10T04:56:28.792Z,16.90
2018-07-10T04:58:57.243Z,17.20
2018-07-10T05:01:34.480Z,17.20
2018-07-10T05:04:03.344Z,17.30
2018-07-10T05:06:34.518Z,17.40
2018-07-10T05:09:03.251Z,17.40
2018-07-10T05:11:31.600Z,17.50
2018-07-10T05:14:00.078Z,17.50
2018-07-10T05:16:28.364Z,17.60
2018-07-10T05:18:56.640Z,17.80
2018-07-10T05:21:25.836Z,17.90
2018-07-10T05:23:54.167Z,18.10
2018-07-10T05:26:25.578Z,18.10
2018-07-10T05:28:53.997Z,18.10
2018-07-10T05:31:22.775Z,18.20
2018-07-10T05:33:52.419Z,18.40
2018-07-10T05:36:23.875Z,18.40
2018-07-10T05:38:57.596Z,18.30
2018-07-10T05:41:26.058Z,18.10
2018-07-10T05:43:54.762Z,17.90
2018-07-10T05:46:24.504Z,18.00
2018-07-10T05:49:00.446Z,18.00
2018-07-10T05:51:32.064Z,18.10
2018-07-10T05:54:03.972Z,18.30
2018-07-10T05:56:32.613Z,18.40
2018-07-10T05:59:02.143Z,18.20
2018-07-10T06:01:30.417Z,18.30
2018-07-10T06:03:59.001Z,18.40
2018-07-10T06:06:27.862Z,18.40
2018-07-10T06:08:56.359Z,18.10
2018-07-10T06:13:56.513Z,18.00
2018-07-10T06:16:25.090Z,18.30
2018-07-10T06:18:55.492Z,18.40
2018-07-10T06:21:30.087Z,18.50
2018-07-10T06:23:58.364Z,18.30
2018-07-10T06:26:30.476Z,18.40
2018-07-10T06:29:00.912Z,18.50
2018-07-10T06:32:01.670Z,18.50
2018-07-10T06:34:37.708Z,19.00
2018-07-10T06:37:09.620Z,18.90
2018-07-10T06:39:38.391Z,19.00
2018-07-10T06:42:11.726Z,19.20
2018-07-10T06:44:40.101Z,19.00
2018-07-10T06:47:33.166Z,19.20
2018-07-10T06:50:01.921Z,19.10
2018-07-10T06:52:30.388Z,18.70
2018-07-10T06:55:10.839Z,18.70
2018-07-10T06:57:45.577Z,19.30
2018-07-10T07:00:13.842Z,19.70
2018-07-10T07:02:42.092Z,19.20
2018-07-10T07:05:10.416Z,19.00
2018-07-10T07:10:09.270Z,18.10
2018-07-10T07:12:38.493Z,17.90
2018-07-10T07:15:08.885Z,17.70
2018-07-10T07:17:40.456Z,17.70
2018-07-10T07:20:08.728Z,17.40
2018-07-10T07:22:37.289Z,17.40
2018-07-10T07:25:05.570Z,17.80
2018-07-10T07:27:41.985Z,18.00
2018-07-10T07:30:10.324Z,18.20
2018-07-10T07:32:38.565Z,18.50
2018-07-10T07:35:06.785Z,18.80
2018-07-10T07:37:37.316Z,19.10
2018-07-10T07:40:05.876Z,18.70
2018-07-10T07:42:34.096Z,18.80
2018-07-10T07:45:05.461Z,18.40
2018-07-10T07:47:34.191Z,18.60
2018-07-10T07:50:02.481Z,18.00
2018-07-10T07:52:31.694Z,17.80
2018-07-10T07:55:01.425Z,18.10
2018-07-10T07:57:29.723Z,18.40
2018-07-10T07:59:58.952Z,18.70
2018-07-10T08:02:27.231Z,18.80
2018-07-10T08:04:55.504Z,18.60
2018-07-10T08:07:24.824Z,18.50
2018-07-10T08:09:55.324Z,18.40
2018-07-10T08:12:25.680Z,18.20
2018-07-10T08:14:55.134Z,18.20
2018-07-10T08:17:24.708Z,18.40
2018-07-10T08:19:54.454Z,19.00
2018-07-10T08:22:23.720Z,19.20
2018-07-10T08:24:51.969Z,18.90
2018-07-10T08:27:20.248Z,19.10
2018-07-10T08:29:48.516Z,19.00
2018-07-10T08:32:16.775Z,18.60
2018-07-10T08:34:45.313Z,18.20
2018-07-10T08:37:14.465Z,18.00
2018-07-10T08:39:42.764Z,17.70
2018-07-10T08:42:11.166Z,18.10
2018-07-10T08:44:39.532Z,18.10
2018-07-10T08:47:09.460Z,17.90
2018-07-10T08:52:08.551Z,18.60
2018-07-10T08:54:37.104Z,19.20
2018-07-10T08:57:05.397Z,19.50
2018-07-10T08:59:34.120Z,19.20
2018-07-10T09:02:03.671Z,19.40
2018-07-10T09:04:31.977Z,20.00
2018-07-10T09:07:00.239Z,20.00
2018-07-10T09:09:28.550Z,20.00
2018-07-10T09:11:56.800Z,20.10
2018-07-10T09:14:28.550Z,19.90
2018-07-10T09:16:56.819Z,19.80
2018-07-10T09:19:27.770Z,18.90
2018-07-10T09:22:02.655Z,17.80
